| time (UTC) | temp F | wind direction | speed MPH | gust MPH | rain 1hr in | rain 24hr in | rain mn in | humidity % | barometer mb |
| 20260507024544 | 63 | 259 | 1.0 | 4.0 | 0.00 | 0.00 | 0.00 | 68 | 1016.0 |
| 20260507023044 | 63 | 272 | 2.0 | 6.0 | 0.00 | 0.00 | 0.00 | 66 | 1015.9 |
| 20260507021545 | 65 | 270 | 3.0 | 6.0 | 0.00 | 0.00 | 0.00 | 63 | 1015.8 |
| 20260507020049 | 65 | 262 | 4.0 | 8.0 | 0.00 | 0.00 | 0.00 | 63 | 1015.7 |
| 20260507014554 | 66 | 223 | 3.0 | 9.0 | 0.00 | 0.00 | 0.00 | 61 | 1015.7 |
| 20260507013053 | 67 | 217 | 4.0 | 11.0 | 0.00 | 0.00 | 0.00 | 61 | 1015.6 |
| 20260507011545 | 67 | 228 | 4.0 | 10.0 | 0.00 | 0.00 | 0.00 | 61 | 1015.6 |
| 20260507010044 | 68 | 218 | 5.0 | 11.0 | 0.00 | 0.00 | 0.00 | 60 | 1015.6 |
| 20260507004601 | 68 | 165 | 3.0 | 10.0 | 0.00 | 0.00 | 0.00 | 61 | 1015.7 |
| 20260507003048 | 69 | 206 | 5.0 | 10.0 | 0.00 | 0.00 | 0.00 | 59 | 1015.6 |
| 20260507001550 | 70 | 222 | 5.0 | 12.0 | 0.00 | 0.00 | 0.00 | 59 | 1015.6 |
| 20260507000046 | 70 | 266 | 3.0 | 11.0 | 0.00 | 0.00 | 0.00 | 59 | 1015.5 |
| 20260506234544 | 70 | 235 | 6.0 | 10.0 | 0.00 | 0.00 | 0.00 | 59 | 1015.4 |
| 20260506233056 | 71 | 232 | 4.0 | 14.0 | 0.00 | 0.00 | 0.00 | 57 | 1015.5 |
| 20260506231553 | 71 | 178 | 4.0 | 13.0 | 0.00 | 0.00 | 0.00 | 58 | 1015.6 |
| 20260506230049 | 71 | 229 | 4.0 | 13.0 | 0.00 | 0.00 | 0.00 | 55 | 1015.6 |
| 20260506224546 | 72 | 135 | 6.0 | 12.0 | 0.00 | 0.00 | 0.00 | 54 | 1015.7 |
| 20260506223044 | 71 | 241 | 6.0 | 14.0 | 0.00 | 0.00 | 0.00 | 56 | 1015.8 |
| 20260506221552 | 72 | 130 | 6.0 | 13.0 | 0.00 | 0.00 | 0.00 | 55 | 1016.0 |
| 20260506220052 | 72 | 174 | 7.0 | 14.0 | 0.00 | 0.00 | 0.00 | 55 | 1016.2 |
| 20260506214550 | 72 | 194 | 5.0 | 11.0 | 0.00 | 0.00 | 0.00 | 55 | 1016.5 |
| 20260506213050 | 71 | 266 | 6.0 | 14.0 | 0.00 | 0.00 | 0.00 | 56 | 1016.4 |
| 20260506211600 | 73 | 134 | 4.0 | 12.0 | 0.00 | 0.00 | 0.00 | 53 | 1016.5 |
| 20260506210045 | 72 | 155 | 5.0 | 11.0 | 0.00 | 0.00 | 0.00 | 53 | 1016.5 |
| 20260506204549 | 73 | 219 | 5.0 | 14.0 | 0.00 | 0.00 | 0.00 | 51 | 1016.5 |
| 20260506203043 | 73 | 139 | 4.0 | 12.0 | 0.00 | 0.00 | 0.00 | 51 | 1016.7 |
| 20260506201542 | 72 | 233 | 3.0 | 11.0 | 0.00 | 0.00 | 0.00 | 50 | 1016.9 |
| 20260506200055 | 72 | 231 | 6.0 | 14.0 | 0.00 | 0.00 | 0.00 | 49 | 1016.8 |
| 20260506194548 | 70 | 217 | 4.0 | 9.0 | 0.00 | 0.00 | 0.00 | 50 | 1017.1 |
| 20260506193043 | 70 | 169 | 4.0 | 8.0 | 0.00 | 0.00 | 0.00 | 51 | 1017.2 |
| 20260506191548 | 71 | 161 | 2.0 | 8.0 | 0.00 | 0.00 | 0.00 | 50 | 1017.3 |
| 20260506190043 | 70 | 219 | 3.0 | 9.0 | 0.00 | 0.00 | 0.00 | 51 | 1017.4 |
| 20260506184542 | 69 | 172 | 1.0 | 9.0 | 0.00 | 0.00 | 0.00 | 51 | 1017.5 |
| 20260506183052 | 68 | 226 | 2.0 | 8.0 | 0.00 | 0.00 | 0.00 | 51 | 1017.7 |
| 20260506181556 | 68 | 114 | 2.0 | 10.0 | 0.00 | 0.00 | 0.00 | 52 | 1017.8 |
| 20260506180104 | 67 | 141 | 5.0 | 11.0 | 0.00 | 0.00 | 0.00 | 53 | 1017.9 |
| 20260506174542 | 66 | 176 | 3.0 | 8.0 | 0.00 | 0.00 | 0.00 | 56 | 1017.8 |
| 20260506173056 | 66 | 0 | 3.0 | 9.0 | 0.00 | 0.00 | 0.00 | 54 | 1017.8 |
| 20260506171549 | 66 | 226 | 2.0 | 8.0 | 0.00 | 0.00 | 0.00 | 54 | 1017.7 |
| 20260506170050 | 65 | 201 | 4.0 | 7.0 | 0.00 | 0.00 | 0.00 | 55 | 1017.7 |
| 20260506164544 | 64 | 246 | 2.0 | 5.0 | 0.00 | 0.00 | 0.00 | 56 | 1017.8 |
| 20260506163045 | 64 | 115 | 1.0 | 4.0 | 0.00 | 0.00 | 0.00 | 58 | 1017.7 |
| 20260506161552 | 62 | 173 | 1.0 | 6.0 | 0.00 | 0.00 | 0.00 | 61 | 1017.6 |
| 20260506160042 | 62 | 132 | 0.0 | 4.0 | 0.00 | 0.00 | 0.00 | 61 | 1017.7 |
| 20260506154547 | 61 | 141 | 2.0 | 4.0 | 0.00 | 0.00 | 0.00 | 62 | 1017.4 |
| 20260506153046 | 61 | 108 | 1.0 | 3.0 | 0.00 | 0.00 | 0.00 | 64 | 1017.6 |
| 20260506151546 | 60 | 72 | 0.0 | 2.0 | 0.00 | 0.00 | 0.00 | 67 | 1017.6 |
| 20260506150045 | 58 | 91 | 1.0 | 2.0 | 0.00 | 0.00 | 0.00 | 70 | 1017.6 |
| 20260506144600 | 59 | 77 | 0.0 | 2.0 | 0.00 | 0.00 | 0.00 | 69 | 1017.6 |
| 20260506143042 | 58 | 0 | 0.0 | 1.0 | 0.00 | 0.00 | 0.00 | 70 | 1017.5 |
| 20260506141540 | 56 | 0 | 0.0 | 0.0 | 0.00 | 0.00 | 0.00 | 75 | 1017.5 |
| 20260506140047 | 54 | 0 | 0.0 | 0.0 | 0.00 | 0.00 | 0.00 | 78 | 1017.3 |
| 20260506134544 | 52 | 0 | 0.0 | 0.0 | 0.00 | 0.00 | 0.00 | 80 | 1017.3 |
| 20260506133046 | 49 | 0 | 0.0 | 0.0 | 0.00 | 0.00 | 0.00 | 84 | 1017.1 |
| 20260506131545 | 49 | 0 | 0.0 | 0.0 | 0.00 | 0.00 | 0.00 | 84 | 1017.1 |
| 20260506130043 | 50 | 347 | 0.0 | 4.0 | 0.00 | 0.00 | 0.00 | 81 | 1017.0 |
| 20260506124542 | 50 | 346 | 2.0 | 3.0 | 0.00 | 0.00 | 0.00 | 82 | 1016.8 |
| 20260506123048 | 50 | 8 | 1.0 | 3.0 | 0.00 | 0.00 | 0.00 | 81 | 1016.8 |
| 20260506121545 | 51 | 335 | 2.0 | 3.0 | 0.00 | 0.00 | 0.00 | 81 | 1016.7 |
| 20260506120045 | 51 | 13 | 1.0 | 2.0 | 0.00 | 0.00 | 0.00 | 80 | 1016.6 |
| 20260506114546 | 51 | 15 | 0.0 | 3.0 | 0.00 | 0.00 | 0.00 | 80 | 1016.6 |
| 20260506113044 | 51 | 350 | 1.0 | 4.0 | 0.00 | 0.00 | 0.00 | 80 | 1016.7 |
| 20260506111549 | 51 | 1 | 2.0 | 3.0 | 0.00 | 0.00 | 0.00 | 81 | 1016.5 |
| 20260506110051 | 51 | 356 | 2.0 | 3.0 | 0.00 | 0.00 | 0.00 | 82 | 1016.5 |
| 20260506104548 | 50 | 356 | 0.0 | 3.0 | 0.00 | 0.00 | 0.00 | 82 | 1016.5 |
| 20260506103051 | 51 | 353 | 0.0 | 3.0 | 0.00 | 0.00 | 0.00 | 82 | 1016.6 |
| 20260506101545 | 51 | 0 | 0.0 | 2.0 | 0.00 | 0.00 | 0.00 | 81 | 1016.5 |
| 20260506100043 | 51 | 0 | 0.0 | 1.0 | 0.00 | 0.00 | 0.00 | 81 | 1016.6 |
| 20260506094605 | 51 | 0 | 0.0 | 3.0 | 0.00 | 0.00 | 0.00 | 81 | 1016.8 |
| 20260506093045 | 51 | 345 | 1.0 | 2.0 | 0.00 | 0.00 | 0.00 | 82 | 1016.8 |
| 20260506091545 | 51 | 342 | 1.0 | 3.0 | 0.00 | 0.00 | 0.00 | 84 | 1017.0 |
| 20260506090045 | 50 | 336 | 0.0 | 1.0 | 0.00 | 0.00 | 0.00 | 86 | 1017.0 |
| 20260506084546 | 51 | 0 | 0.0 | 2.0 | 0.00 | 0.00 | 0.00 | 84 | 1017.1 |
| 20260506083043 | 51 | 0 | 0.0 | 1.0 | 0.00 | 0.00 | 0.00 | 85 | 1017.1 |
| 20260506081550 | 51 | 333 | 0.0 | 6.0 | 0.00 | 0.00 | 0.00 | 86 | 1017.2 |
| 20260506073050 | 50 | 345 | 1.0 | 3.0 | 0.00 | 0.00 | 0.00 | 88 | 1017.3 |
| 20260506071552 | 51 | 2 | 2.0 | 4.0 | 0.00 | 0.00 | 0.00 | 89 | 1017.3 |
| 20260506061544 | 51 | 0 | 0.0 | 1.0 | 0.00 | 0.00 | 0.00 | 88 | 1016.6 |
| 20260506044551 | 53 | 0 | 0.0 | 0.0 | 0.00 | 0.00 | 0.00 | 83 | 1016.0 |
| 20260506043044 | 53 | 342 | 0.0 | 3.0 | 0.00 | 0.00 | 0.00 | 83 | 1015.8 |
| 20260506041551 | 53 | 345 | 2.0 | 3.0 | 0.00 | 0.00 | 0.00 | 83 | 1015.4 |
| 20260506040041 | 54 | 0 | 0.0 | 0.0 | 0.00 | 0.00 | 0.00 | 81 | 1015.3 |
| 20260506034541 | 55 | 0 | 0.0 | 1.0 | 0.00 | 0.00 | 0.00 | 80 | 1015.2 |
| 20260506033051 | 55 | 0 | 0.0 | 0.0 | 0.00 | 0.00 | 0.00 | 79 | 1015.2 |
| 20260506031544 | 56 | 0 | 0.0 | 0.0 | 0.00 | 0.00 | 0.00 | 78 | 1014.7 |
| 20260506030047 | 57 | 271 | 0.0 | 1.0 | 0.00 | 0.00 | 0.00 | 77 | 1014.5 |